This is the latest recevied weather packets stored in our database for station/object G4KVI. If no packets are shown the sender has not sent any weather packets the latest 10 day(s).
| Time | Temp. | Humidity | Pressure | Rain* | Wind** | Luminosity | Snow |
|---|---|---|---|---|---|---|---|
| 1787495704 | 22.22° C | 36% | 1026 hPa | 0 mm | - | 594 W/m² | - |
| 1787495404 | 22.22° C | 35% | 1026 hPa | 0 mm | - | 327 W/m² | - |
| 1787495104 | 22.22° C | 37% | 1026.2 hPa | 0 mm | - | 224 W/m² | - |
| 1787494804 | 22.78° C | 35% | 1026.4 hPa | 0 mm | - | 170 W/m² | - |
| 1787494504 | 22.78° C | 35% | 1026.2 hPa | 0 mm | - | 181 W/m² | - |
| 1787494204 | 23.33° C | 35% | 1026.1 hPa | 0 mm | - | 633 W/m² | - |
| 1787493904 | 22.78° C | 35% | 1026.2 hPa | 0 mm | - | 595 W/m² | - |
| 1787493604 | 22.78° C | 35% | 1026.3 hPa | 0 mm | - | 675 W/m² | - |
| 1787493304 | 22.22° C | 36% | 1026.4 hPa | 0 mm | - | 199 W/m² | - |
| 1787493004 | 22.22° C | 36% | 1026.3 hPa | 0 mm | - | 687 W/m² | - |
| 1787492704 | 22.78° C | 35% | 1026.9 hPa | 0 mm | - | 142 W/m² | - |
| 1787492404 | 22.78° C | 36% | 1026.5 hPa | 0 mm | - | 194 W/m² | - |
| 1787492104 | 22.78° C | 36% | 1026.6 hPa | 0 mm | - | 207 W/m² | - |
| 1787491804 | 23.89° C | 33% | 1026.5 hPa | 0 mm | - | 753 W/m² | - |
| 1787491504 | 23.33° C | 34% | 1026.8 hPa | 0 mm | - | 742 W/m² | - |
| 1787491204 | 22.78° C | 34% | 1026.9 hPa | 0 mm | - | 730 W/m² | - |
| 1787490904 | 21.67° C | 35% | 1026.7 hPa | 0 mm | - | 732 W/m² | - |
| 1787490604 | 21.67° C | 35% | 1026.8 hPa | 0 mm | - | 218 W/m² | - |
| 1787490304 | 22.22° C | 35% | 1027.1 hPa | 0 mm | - | 165 W/m² | - |
| 1787490004 | 22.78° C | 34% | 1027 hPa | 0 mm | - | 182 W/m² | - |
| 1787489704 | 23.33° C | 34% | 1026.9 hPa | 0 mm | - | 224 W/m² | - |
| 1787489404 | 23.33° C | 34% | 1026.9 hPa | 0 mm | - | 245 W/m² | - |
| 1787489104 | 22.78° C | 36% | 1027 hPa | 0 mm | - | 740 W/m² | - |
| 1787488804 | 23.33° C | 35% | 1027 hPa | 0 mm | - | 747 W/m² | - |
| 1787488504 | 23.33° C | 35% | 1027.1 hPa | 0 mm | - | 741 W/m² | - |
* Rain latest hour (hover to see other rain measurements)
** Current wind speed in m/s (hover to see current wind gust speed)